sensor_id;sensor_type;location;lat;lon;timestamp;temperature;humidity
27413;DHT22;14871;52.702;5.230;2023-12-14T00:00:25;8.60;99.90
27413;DHT22;14871;52.702;5.230;2023-12-14T00:02:50;8.70;99.90
27413;DHT22;14871;52.702;5.230;2023-12-14T00:05:16;8.70;99.90
27413;DHT22;14871;52.702;5.230;2023-12-14T00:07:42;8.70;99.90
27413;DHT22;14871;52.702;5.230;2023-12-14T00:10:08;8.60;99.90
27413;DHT22;14871;52.702;5.230;2023-12-14T00:12:34;8.60;99.90
27413;DHT22;14871;52.702;5.230;2023-12-14T00:15:00;8.60;99.90
27413;DHT22;14871;52.702;5.230;2023-12-14T00:17:25;8.60;99.90
27413;DHT22;14871;52.702;5.230;2023-12-14T00:19:51;8.60;99.90
27413;DHT22;14871;52.702;5.230;2023-12-14T00:22:16;8.60;99.90
27413;DHT22;14871;52.702;5.230;2023-12-14T00:24:42;8.50;99.90
27413;DHT22;14871;52.702;5.230;2023-12-14T00:27:08;8.50;99.90
27413;DHT22;14871;52.702;5.230;2023-12-14T00:29:33;8.50;99.90
27413;DHT22;14871;52.702;5.230;2023-12-14T00:31:59;8.40;99.90
27413;DHT22;14871;52.702;5.230;2023-12-14T00:34:24;8.50;99.90
27413;DHT22;14871;52.702;5.230;2023-12-14T00:36:50;8.50;99.90
27413;DHT22;14871;52.702;5.230;2023-12-14T00:39:16;8.50;99.90
27413;DHT22;14871;52.702;5.230;2023-12-14T00:41:41;8.50;99.90
27413;DHT22;14871;52.702;5.230;2023-12-14T00:44:07;8.50;99.90
27413;DHT22;14871;52.702;5.230;2023-12-14T00:46:32;8.60;99.90
27413;DHT22;14871;52.702;5.230;2023-12-14T00:48:58;8.60;99.90
27413;DHT22;14871;52.702;5.230;2023-12-14T00:51:23;8.50;99.90
27413;DHT22;14871;52.702;5.230;2023-12-14T00:53:49;8.50;99.90
27413;DHT22;14871;52.702;5.230;2023-12-14T00:56:15;8.50;99.90
27413;DHT22;14871;52.702;5.230;2023-12-14T00:58:40;8.50;99.90
27413;DHT22;14871;52.702;5.230;2023-12-14T01:01:06;8.50;99.90
27413;DHT22;14871;52.702;5.230;2023-12-14T01:03:31;8.60;99.90
27413;DHT22;14871;52.702;5.230;2023-12-14T01:05:57;8.60;99.90
27413;DHT22;14871;52.702;5.230;2023-12-14T01:08:23;8.60;99.90
27413;DHT22;14871;52.702;5.230;2023-12-14T01:10:49;8.60;99.90
27413;DHT22;14871;52.702;5.230;2023-12-14T01:13:14;8.60;99.90
27413;DHT22;14871;52.702;5.230;2023-12-14T01:15:40;8.60;99.90
27413;DHT22;14871;52.702;5.230;2023-12-14T01:18:05;8.50;99.90
27413;DHT22;14871;52.702;5.230;2023-12-14T01:20:31;8.60;99.90
27413;DHT22;14871;52.702;5.230;2023-12-14T01:22:56;8.50;99.90
27413;DHT22;14871;52.702;5.230;2023-12-14T01:25:22;8.40;99.90
27413;DHT22;14871;52.702;5.230;2023-12-14T01:27:48;8.40;99.90
27413;DHT22;14871;52.702;5.230;2023-12-14T01:30:13;8.40;99.90
27413;DHT22;14871;52.702;5.230;2023-12-14T01:32:39;8.40;99.90
27413;DHT22;14871;52.702;5.230;2023-12-14T01:35:05;8.50;99.90
27413;DHT22;14871;52.702;5.230;2023-12-14T01:37:30;8.40;99.90
27413;DHT22;14871;52.702;5.230;2023-12-14T01:39:56;8.40;99.90
27413;DHT22;14871;52.702;5.230;2023-12-14T01:42:21;8.40;99.90
27413;DHT22;14871;52.702;5.230;2023-12-14T01:44:47;8.50;99.90
27413;DHT22;14871;52.702;5.230;2023-12-14T01:47:13;8.30;99.90
27413;DHT22;14871;52.702;5.230;2023-12-14T01:49:38;8.30;99.90
27413;DHT22;14871;52.702;5.230;2023-12-14T01:52:06;8.30;99.90
27413;DHT22;14871;52.702;5.230;2023-12-14T01:54:32;8.30;99.90
27413;DHT22;14871;52.702;5.230;2023-12-14T01:56:58;8.30;99.90
27413;DHT22;14871;52.702;5.230;2023-12-14T01:59:24;8.20;99.90
27413;DHT22;14871;52.702;5.230;2023-12-14T02:01:54;8.20;99.90
27413;DHT22;14871;52.702;5.230;2023-12-14T02:04:23;8.10;99.90
27413;DHT22;14871;52.702;5.230;2023-12-14T02:06:50;8.20;99.90
27413;DHT22;14871;52.702;5.230;2023-12-14T02:09:16;8.20;99.90
27413;DHT22;14871;52.702;5.230;2023-12-14T02:11:41;8.20;99.90
27413;DHT22;14871;52.702;5.230;2023-12-14T02:14:09;8.10;99.90
27413;DHT22;14871;52.702;5.230;2023-12-14T02:16:36;8.10;99.90
27413;DHT22;14871;52.702;5.230;2023-12-14T02:19:04;8.10;99.90
27413;DHT22;14871;52.702;5.230;2023-12-14T02:21:30;8.10;99.90
27413;DHT22;14871;52.702;5.230;2023-12-14T02:23:56;8.20;99.90
27413;DHT22;14871;52.702;5.230;2023-12-14T02:26:21;8.30;99.90
27413;DHT22;14871;52.702;5.230;2023-12-14T02:28:47;8.30;99.90
27413;DHT22;14871;52.702;5.230;2023-12-14T02:31:13;8.30;99.90
27413;DHT22;14871;52.702;5.230;2023-12-14T02:33:38;8.30;99.90
27413;DHT22;14871;52.702;5.230;2023-12-14T02:36:04;8.40;99.90
27413;DHT22;14871;52.702;5.230;2023-12-14T02:38:30;8.40;99.90
27413;DHT22;14871;52.702;5.230;2023-12-14T02:40:56;8.30;99.90
27413;DHT22;14871;52.702;5.230;2023-12-14T02:43:21;8.30;99.90
27413;DHT22;14871;52.702;5.230;2023-12-14T02:45:49;8.30;99.90
27413;DHT22;14871;52.702;5.230;2023-12-14T02:48:15;8.30;99.90
27413;DHT22;14871;52.702;5.230;2023-12-14T02:50:40;8.30;99.90
27413;DHT22;14871;52.702;5.230;2023-12-14T02:53:06;8.30;99.90
27413;DHT22;14871;52.702;5.230;2023-12-14T02:55:31;8.30;99.90
27413;DHT22;14871;52.702;5.230;2023-12-14T02:57:57;8.30;99.90
27413;DHT22;14871;52.702;5.230;2023-12-14T03:00:23;8.30;99.90
27413;DHT22;14871;52.702;5.230;2023-12-14T03:02:48;8.40;99.90
27413;DHT22;14871;52.702;5.230;2023-12-14T03:05:14;8.30;99.90
27413;DHT22;14871;52.702;5.230;2023-12-14T03:07:39;8.30;99.90
27413;DHT22;14871;52.702;5.230;2023-12-14T03:10:06;8.30;99.90
27413;DHT22;14871;52.702;5.230;2023-12-14T03:12:32;8.30;99.90
27413;DHT22;14871;52.702;5.230;2023-12-14T03:14:58;8.20;99.90
27413;DHT22;14871;52.702;5.230;2023-12-14T03:17:23;8.20;99.90
27413;DHT22;14871;52.702;5.230;2023-12-14T03:19:49;8.30;99.90
27413;DHT22;14871;52.702;5.230;2023-12-14T03:22:15;8.40;99.90
27413;DHT22;14871;52.702;5.230;2023-12-14T03:24:41;8.40;99.90
27413;DHT22;14871;52.702;5.230;2023-12-14T03:27:07;8.30;99.90
27413;DHT22;14871;52.702;5.230;2023-12-14T03:29:32;8.20;99.90
27413;DHT22;14871;52.702;5.230;2023-12-14T03:31:58;8.20;99.90
27413;DHT22;14871;52.702;5.230;2023-12-14T03:34:24;8.20;99.90
27413;DHT22;14871;52.702;5.230;2023-12-14T03:36:50;8.20;99.90
27413;DHT22;14871;52.702;5.230;2023-12-14T03:39:16;8.20;99.90
27413;DHT22;14871;52.702;5.230;2023-12-14T03:41:43;8.20;99.90
27413;DHT22;14871;52.702;5.230;2023-12-14T03:44:08;8.20;99.90
27413;DHT22;14871;52.702;5.230;2023-12-14T03:46:34;8.30;99.90
27413;DHT22;14871;52.702;5.230;2023-12-14T03:49:00;8.20;99.90
27413;DHT22;14871;52.702;5.230;2023-12-14T03:51:26;8.30;99.90
27413;DHT22;14871;52.702;5.230;2023-12-14T03:53:51;8.30;99.90
27413;DHT22;14871;52.702;5.230;2023-12-14T03:56:17;8.20;99.90
27413;DHT22;14871;52.702;5.230;2023-12-14T03:58:43;8.30;99.90
27413;DHT22;14871;52.702;5.230;2023-12-14T04:01:16;8.20;99.90
27413;DHT22;14871;52.702;5.230;2023-12-14T04:03:41;8.30;99.90
27413;DHT22;14871;52.702;5.230;2023-12-14T04:06:07;8.30;99.90
27413;DHT22;14871;52.702;5.230;2023-12-14T04:08:32;8.30;99.90
27413;DHT22;14871;52.702;5.230;2023-12-14T04:10:58;8.30;99.90
27413;DHT22;14871;52.702;5.230;2023-12-14T04:13:24;8.30;99.90
27413;DHT22;14871;52.702;5.230;2023-12-14T04:15:49;8.20;99.90
27413;DHT22;14871;52.702;5.230;2023-12-14T04:18:15;8.20;99.90
27413;DHT22;14871;52.702;5.230;2023-12-14T04:20:40;8.10;99.90
27413;DHT22;14871;52.702;5.230;2023-12-14T04:23:06;8.20;99.90
27413;DHT22;14871;52.702;5.230;2023-12-14T04:25:31;8.10;99.90
27413;DHT22;14871;52.702;5.230;2023-12-14T04:27:57;8.10;99.90
27413;DHT22;14871;52.702;5.230;2023-12-14T04:30:23;8.10;99.90
27413;DHT22;14871;52.702;5.230;2023-12-14T04:32:48;8.00;99.90
27413;DHT22;14871;52.702;5.230;2023-12-14T04:35:14;8.10;99.90
27413;DHT22;14871;52.702;5.230;2023-12-14T04:37:40;8.10;99.90
27413;DHT22;14871;52.702;5.230;2023-12-14T04:40:06;8.20;99.90
27413;DHT22;14871;52.702;5.230;2023-12-14T04:42:31;8.20;99.90
27413;DHT22;14871;52.702;5.230;2023-12-14T04:44:57;8.20;99.90
27413;DHT22;14871;52.702;5.230;2023-12-14T04:47:22;8.20;99.90
27413;DHT22;14871;52.702;5.230;2023-12-14T04:49:49;8.20;99.90
27413;DHT22;14871;52.702;5.230;2023-12-14T04:52:14;8.20;99.90
27413;DHT22;14871;52.702;5.230;2023-12-14T04:54:40;8.20;99.90
27413;DHT22;14871;52.702;5.230;2023-12-14T04:57:07;8.20;99.90
27413;DHT22;14871;52.702;5.230;2023-12-14T04:59:33;8.20;99.90
27413;DHT22;14871;52.702;5.230;2023-12-14T05:01:58;8.20;99.90
27413;DHT22;14871;52.702;5.230;2023-12-14T05:04:24;8.00;99.90
27413;DHT22;14871;52.702;5.230;2023-12-14T05:06:49;8.10;99.90
27413;DHT22;14871;52.702;5.230;2023-12-14T05:09:15;8.20;99.90
27413;DHT22;14871;52.702;5.230;2023-12-14T05:11:41;8.10;99.90
27413;DHT22;14871;52.702;5.230;2023-12-14T05:14:07;8.10;99.90
27413;DHT22;14871;52.702;5.230;2023-12-14T05:16:33;8.10;99.90
27413;DHT22;14871;52.702;5.230;2023-12-14T05:18:59;8.10;99.90
27413;DHT22;14871;52.702;5.230;2023-12-14T05:21:25;8.10;99.90
27413;DHT22;14871;52.702;5.230;2023-12-14T05:23:50;8.10;99.90
27413;DHT22;14871;52.702;5.230;2023-12-14T05:26:16;8.00;99.90
27413;DHT22;14871;52.702;5.230;2023-12-14T05:28:42;8.20;99.90
27413;DHT22;14871;52.702;5.230;2023-12-14T05:31:08;8.20;99.90
27413;DHT22;14871;52.702;5.230;2023-12-14T05:33:37;8.20;99.90
27413;DHT22;14871;52.702;5.230;2023-12-14T05:36:02;8.30;99.90
27413;DHT22;14871;52.702;5.230;2023-12-14T05:38:31;8.20;99.90
27413;DHT22;14871;52.702;5.230;2023-12-14T05:40:57;8.20;99.90
27413;DHT22;14871;52.702;5.230;2023-12-14T05:43:22;8.20;99.90
27413;DHT22;14871;52.702;5.230;2023-12-14T05:45:48;8.20;99.90
27413;DHT22;14871;52.702;5.230;2023-12-14T05:48:13;8.20;99.90
27413;DHT22;14871;52.702;5.230;2023-12-14T05:50:39;8.20;99.90
27413;DHT22;14871;52.702;5.230;2023-12-14T05:53:05;8.20;99.90
27413;DHT22;14871;52.702;5.230;2023-12-14T05:55:30;8.20;99.90
27413;DHT22;14871;52.702;5.230;2023-12-14T05:57:56;8.20;99.90
27413;DHT22;14871;52.702;5.230;2023-12-14T06:00:22;8.20;99.90
27413;DHT22;14871;52.702;5.230;2023-12-14T06:02:47;8.20;99.90
27413;DHT22;14871;52.702;5.230;2023-12-14T06:05:13;8.30;99.90
27413;DHT22;14871;52.702;5.230;2023-12-14T06:07:39;8.20;99.90
27413;DHT22;14871;52.702;5.230;2023-12-14T06:10:05;8.30;99.90
27413;DHT22;14871;52.702;5.230;2023-12-14T06:12:31;8.20;99.90
27413;DHT22;14871;52.702;5.230;2023-12-14T06:14:56;8.30;99.90
27413;DHT22;14871;52.702;5.230;2023-12-14T06:17:22;8.30;99.90
27413;DHT22;14871;52.702;5.230;2023-12-14T06:19:48;8.30;99.90
27413;DHT22;14871;52.702;5.230;2023-12-14T06:22:13;8.30;99.90
27413;DHT22;14871;52.702;5.230;2023-12-14T06:24:39;8.30;99.90
27413;DHT22;14871;52.702;5.230;2023-12-14T06:27:04;8.40;99.90
27413;DHT22;14871;52.702;5.230;2023-12-14T06:29:30;8.50;99.90
27413;DHT22;14871;52.702;5.230;2023-12-14T06:31:56;8.50;99.90
27413;DHT22;14871;52.702;5.230;2023-12-14T06:34:22;8.50;99.90
27413;DHT22;14871;52.702;5.230;2023-12-14T06:36:47;8.40;99.90
27413;DHT22;14871;52.702;5.230;2023-12-14T06:39:13;8.50;99.90
27413;DHT22;14871;52.702;5.230;2023-12-14T06:41:39;8.50;99.90
27413;DHT22;14871;52.702;5.230;2023-12-14T06:44:04;8.50;99.90
27413;DHT22;14871;52.702;5.230;2023-12-14T06:46:30;8.50;99.90
27413;DHT22;14871;52.702;5.230;2023-12-14T06:48:56;8.50;99.90
27413;DHT22;14871;52.702;5.230;2023-12-14T06:51:22;8.50;99.90
27413;DHT22;14871;52.702;5.230;2023-12-14T06:53:48;8.40;99.90
27413;DHT22;14871;52.702;5.230;2023-12-14T06:56:14;8.50;99.90
27413;DHT22;14871;52.702;5.230;2023-12-14T06:58:41;8.30;99.90
27413;DHT22;14871;52.702;5.230;2023-12-14T07:01:12;8.40;99.90
27413;DHT22;14871;52.702;5.230;2023-12-14T07:03:40;8.40;99.90
27413;DHT22;14871;52.702;5.230;2023-12-14T07:06:07;8.50;99.90
27413;DHT22;14871;52.702;5.230;2023-12-14T07:08:33;8.40;99.90
27413;DHT22;14871;52.702;5.230;2023-12-14T07:10:58;8.40;99.90
27413;DHT22;14871;52.702;5.230;2023-12-14T07:13:24;8.50;99.90
27413;DHT22;14871;52.702;5.230;2023-12-14T07:15:49;8.40;99.90
27413;DHT22;14871;52.702;5.230;2023-12-14T07:18:15;8.40;99.90
27413;DHT22;14871;52.702;5.230;2023-12-14T07:20:41;8.50;99.90
27413;DHT22;14871;52.702;5.230;2023-12-14T07:23:06;8.50;99.90
27413;DHT22;14871;52.702;5.230;2023-12-14T07:25:32;8.50;99.90
27413;DHT22;14871;52.702;5.230;2023-12-14T07:27:57;8.50;99.90
27413;DHT22;14871;52.702;5.230;2023-12-14T07:30:23;8.50;99.90
27413;DHT22;14871;52.702;5.230;2023-12-14T07:32:48;8.50;99.90
27413;DHT22;14871;52.702;5.230;2023-12-14T07:35:14;8.50;99.90
27413;DHT22;14871;52.702;5.230;2023-12-14T07:37:40;8.60;99.90
27413;DHT22;14871;52.702;5.230;2023-12-14T07:40:06;8.60;99.90
27413;DHT22;14871;52.702;5.230;2023-12-14T07:42:31;8.60;99.90
27413;DHT22;14871;52.702;5.230;2023-12-14T07:44:57;8.60;99.90
27413;DHT22;14871;52.702;5.230;2023-12-14T07:47:23;8.60;99.90
27413;DHT22;14871;52.702;5.230;2023-12-14T07:49:48;8.60;99.90
27413;DHT22;14871;52.702;5.230;2023-12-14T07:52:14;8.60;99.90
27413;DHT22;14871;52.702;5.230;2023-12-14T07:54:40;8.70;99.90
27413;DHT22;14871;52.702;5.230;2023-12-14T07:57:05;8.70;99.90
27413;DHT22;14871;52.702;5.230;2023-12-14T07:59:31;8.70;99.90
27413;DHT22;14871;52.702;5.230;2023-12-14T08:01:57;8.80;99.90
27413;DHT22;14871;52.702;5.230;2023-12-14T08:04:23;8.80;99.90
27413;DHT22;14871;52.702;5.230;2023-12-14T08:06:48;8.70;99.90
27413;DHT22;14871;52.702;5.230;2023-12-14T08:09:14;8.70;99.90
27413;DHT22;14871;52.702;5.230;2023-12-14T08:11:40;8.70;99.90
27413;DHT22;14871;52.702;5.230;2023-12-14T08:14:06;8.70;99.90
27413;DHT22;14871;52.702;5.230;2023-12-14T08:16:31;8.70;99.90
27413;DHT22;14871;52.702;5.230;2023-12-14T08:18:57;8.70;99.90
27413;DHT22;14871;52.702;5.230;2023-12-14T08:21:23;8.70;99.90
27413;DHT22;14871;52.702;5.230;2023-12-14T08:23:49;8.70;99.90
27413;DHT22;14871;52.702;5.230;2023-12-14T08:26:14;8.70;99.90
27413;DHT22;14871;52.702;5.230;2023-12-14T08:28:40;8.70;99.90
27413;DHT22;14871;52.702;5.230;2023-12-14T08:31:05;8.70;99.90
27413;DHT22;14871;52.702;5.230;2023-12-14T08:33:31;8.60;99.90
27413;DHT22;14871;52.702;5.230;2023-12-14T08:35:57;8.60;99.90
27413;DHT22;14871;52.702;5.230;2023-12-14T08:38:23;8.60;99.90
27413;DHT22;14871;52.702;5.230;2023-12-14T08:40:50;8.70;99.90
27413;DHT22;14871;52.702;5.230;2023-12-14T08:43:16;8.70;99.90
27413;DHT22;14871;52.702;5.230;2023-12-14T08:45:42;8.70;99.90
27413;DHT22;14871;52.702;5.230;2023-12-14T08:48:07;8.60;99.90
27413;DHT22;14871;52.702;5.230;2023-12-14T08:50:33;8.60;99.90
27413;DHT22;14871;52.702;5.230;2023-12-14T08:52:59;8.60;99.90
27413;DHT22;14871;52.702;5.230;2023-12-14T08:55:25;8.60;99.90
27413;DHT22;14871;52.702;5.230;2023-12-14T08:57:51;8.60;99.90
27413;DHT22;14871;52.702;5.230;2023-12-14T09:00:17;8.60;99.90
27413;DHT22;14871;52.702;5.230;2023-12-14T09:02:44;8.60;99.90
27413;DHT22;14871;52.702;5.230;2023-12-14T09:05:14;8.60;99.90
27413;DHT22;14871;52.702;5.230;2023-12-14T09:07:41;8.60;99.90
27413;DHT22;14871;52.702;5.230;2023-12-14T09:10:07;8.60;99.90
27413;DHT22;14871;52.702;5.230;2023-12-14T09:12:33;8.70;99.90
27413;DHT22;14871;52.702;5.230;2023-12-14T09:15:00;8.70;99.90
27413;DHT22;14871;52.702;5.230;2023-12-14T09:17:26;8.80;99.90
27413;DHT22;14871;52.702;5.230;2023-12-14T09:20:01;8.90;99.90
27413;DHT22;14871;52.702;5.230;2023-12-14T09:22:26;9.00;99.90
27413;DHT22;14871;52.702;5.230;2023-12-14T09:24:52;9.10;99.90
27413;DHT22;14871;52.702;5.230;2023-12-14T09:27:18;9.20;99.90
27413;DHT22;14871;52.702;5.230;2023-12-14T09:29:44;9.20;99.90
27413;DHT22;14871;52.702;5.230;2023-12-14T09:32:09;9.40;99.90
27413;DHT22;14871;52.702;5.230;2023-12-14T09:34:35;9.50;99.90
27413;DHT22;14871;52.702;5.230;2023-12-14T09:37:00;9.50;99.90
27413;DHT22;14871;52.702;5.230;2023-12-14T09:39:26;10.30;99.90
27413;DHT22;14871;52.702;5.230;2023-12-14T09:42:03;10.80;99.90
27413;DHT22;14871;52.702;5.230;2023-12-14T09:44:30;11.20;99.90
27413;DHT22;14871;52.702;5.230;2023-12-14T09:46:55;11.60;99.90
27413;DHT22;14871;52.702;5.230;2023-12-14T09:49:23;12.00;99.90
27413;DHT22;14871;52.702;5.230;2023-12-14T09:51:50;12.40;99.90
27413;DHT22;14871;52.702;5.230;2023-12-14T09:54:15;12.90;99.90
27413;DHT22;14871;52.702;5.230;2023-12-14T09:56:47;12.90;99.90
27413;DHT22;14871;52.702;5.230;2023-12-14T09:59:14;13.00;99.90
27413;DHT22;14871;52.702;5.230;2023-12-14T10:01:39;13.00;99.90
27413;DHT22;14871;52.702;5.230;2023-12-14T10:04:08;12.90;99.90
27413;DHT22;14871;52.702;5.230;2023-12-14T10:06:34;12.50;99.90
27413;DHT22;14871;52.702;5.230;2023-12-14T10:09:00;12.20;99.90
27413;DHT22;14871;52.702;5.230;2023-12-14T10:11:26;12.30;99.90
27413;DHT22;14871;52.702;5.230;2023-12-14T10:13:52;12.70;99.90
27413;DHT22;14871;52.702;5.230;2023-12-14T10:16:31;12.40;99.90
27413;DHT22;14871;52.702;5.230;2023-12-14T10:18:58;12.10;99.90
27413;DHT22;14871;52.702;5.230;2023-12-14T10:21:27;11.80;99.90
27413;DHT22;14871;52.702;5.230;2023-12-14T10:23:56;11.60;99.90
27413;DHT22;14871;52.702;5.230;2023-12-14T10:26:25;11.30;99.90
27413;DHT22;14871;52.702;5.230;2023-12-14T10:28:52;11.20;99.90
27413;DHT22;14871;52.702;5.230;2023-12-14T10:31:18;11.00;99.90
27413;DHT22;14871;52.702;5.230;2023-12-14T10:33:45;10.70;99.90
27413;DHT22;14871;52.702;5.230;2023-12-14T10:36:17;10.70;99.90
27413;DHT22;14871;52.702;5.230;2023-12-14T10:38:43;10.60;99.90
27413;DHT22;14871;52.702;5.230;2023-12-14T10:41:12;10.70;99.90
27413;DHT22;14871;52.702;5.230;2023-12-14T10:43:39;10.60;99.90
27413;DHT22;14871;52.702;5.230;2023-12-14T10:46:07;10.40;99.90
27413;DHT22;14871;52.702;5.230;2023-12-14T10:48:36;10.40;99.90
27413;DHT22;14871;52.702;5.230;2023-12-14T10:51:03;10.30;99.90
27413;DHT22;14871;52.702;5.230;2023-12-14T10:53:32;10.20;99.90
27413;DHT22;14871;52.702;5.230;2023-12-14T10:55:59;10.30;99.90
27413;DHT22;14871;52.702;5.230;2023-12-14T10:58:26;10.10;99.90
27413;DHT22;14871;52.702;5.230;2023-12-14T11:00:59;10.10;99.90
27413;DHT22;14871;52.702;5.230;2023-12-14T11:03:26;10.00;99.90
27413;DHT22;14871;52.702;5.230;2023-12-14T11:05:52;10.00;99.90
27413;DHT22;14871;52.702;5.230;2023-12-14T11:08:18;10.00;99.90
27413;DHT22;14871;52.702;5.230;2023-12-14T11:10:53;9.80;99.90
27413;DHT22;14871;52.702;5.230;2023-12-14T11:13:22;9.80;99.90
27413;DHT22;14871;52.702;5.230;2023-12-14T11:15:50;10.00;99.90
27413;DHT22;14871;52.702;5.230;2023-12-14T11:18:21;10.10;99.90
27413;DHT22;14871;52.702;5.230;2023-12-14T11:20:48;10.60;99.90
27413;DHT22;14871;52.702;5.230;2023-12-14T11:23:35;11.30;99.90
27413;DHT22;14871;52.702;5.230;2023-12-14T11:26:02;11.50;99.90
27413;DHT22;14871;52.702;5.230;2023-12-14T11:28:35;11.40;99.90
27413;DHT22;14871;52.702;5.230;2023-12-14T11:31:01;11.40;99.90
27413;DHT22;14871;52.702;5.230;2023-12-14T11:33:28;11.50;99.90
27413;DHT22;14871;52.702;5.230;2023-12-14T11:35:54;11.30;99.90
27413;DHT22;14871;52.702;5.230;2023-12-14T11:38:23;11.50;99.90
27413;DHT22;14871;52.702;5.230;2023-12-14T11:40:50;11.60;99.90
27413;DHT22;14871;52.702;5.230;2023-12-14T11:43:15;11.40;99.90
27413;DHT22;14871;52.702;5.230;2023-12-14T11:45:41;11.20;99.90
27413;DHT22;14871;52.702;5.230;2023-12-14T11:48:08;11.10;99.90
27413;DHT22;14871;52.702;5.230;2023-12-14T11:50:36;11.10;99.90
27413;DHT22;14871;52.702;5.230;2023-12-14T11:53:02;10.90;99.90
27413;DHT22;14871;52.702;5.230;2023-12-14T11:55:33;10.80;99.90
27413;DHT22;14871;52.702;5.230;2023-12-14T11:57:59;10.50;99.90
27413;DHT22;14871;52.702;5.230;2023-12-14T12:00:26;10.40;99.90
27413;DHT22;14871;52.702;5.230;2023-12-14T12:03:06;10.40;99.90
27413;DHT22;14871;52.702;5.230;2023-12-14T12:05:36;10.40;99.90
27413;DHT22;14871;52.702;5.230;2023-12-14T12:08:02;10.20;99.90
27413;DHT22;14871;52.702;5.230;2023-12-14T12:10:29;10.20;99.90
27413;DHT22;14871;52.702;5.230;2023-12-14T12:13:08;10.00;99.90
27413;DHT22;14871;52.702;5.230;2023-12-14T12:15:36;10.20;99.90
27413;DHT22;14871;52.702;5.230;2023-12-14T12:18:06;9.80;99.90
27413;DHT22;14871;52.702;5.230;2023-12-14T12:20:31;10.00;99.90
27413;DHT22;14871;52.702;5.230;2023-12-14T12:22:58;9.90;99.90
27413;DHT22;14871;52.702;5.230;2023-12-14T12:25:23;10.10;99.90
27413;DHT22;14871;52.702;5.230;2023-12-14T12:27:49;10.10;99.90
27413;DHT22;14871;52.702;5.230;2023-12-14T12:30:15;9.80;99.90
27413;DHT22;14871;52.702;5.230;2023-12-14T12:32:41;10.00;99.90
27413;DHT22;14871;52.702;5.230;2023-12-14T12:35:07;10.10;99.90
27413;DHT22;14871;52.702;5.230;2023-12-14T12:37:33;10.20;99.90
27413;DHT22;14871;52.702;5.230;2023-12-14T12:39:59;10.20;99.90
27413;DHT22;14871;52.702;5.230;2023-12-14T12:42:25;10.30;99.90
27413;DHT22;14871;52.702;5.230;2023-12-14T12:44:51;10.30;99.90
27413;DHT22;14871;52.702;5.230;2023-12-14T12:47:17;10.20;99.90
27413;DHT22;14871;52.702;5.230;2023-12-14T12:49:43;10.30;99.90
27413;DHT22;14871;52.702;5.230;2023-12-14T12:52:09;10.30;99.90
27413;DHT22;14871;52.702;5.230;2023-12-14T12:54:35;10.10;99.90
27413;DHT22;14871;52.702;5.230;2023-12-14T12:57:00;10.10;99.90
27413;DHT22;14871;52.702;5.230;2023-12-14T12:59:26;10.00;99.90
27413;DHT22;14871;52.702;5.230;2023-12-14T13:01:52;10.00;99.90
27413;DHT22;14871;52.702;5.230;2023-12-14T13:04:22;10.00;99.90
27413;DHT22;14871;52.702;5.230;2023-12-14T13:06:48;9.90;99.90
27413;DHT22;14871;52.702;5.230;2023-12-14T13:09:15;9.80;99.90
27413;DHT22;14871;52.702;5.230;2023-12-14T13:11:45;10.00;99.90
27413;DHT22;14871;52.702;5.230;2023-12-14T13:14:10;9.70;99.90
27413;DHT22;14871;52.702;5.230;2023-12-14T13:16:37;9.80;99.90
27413;DHT22;14871;52.702;5.230;2023-12-14T13:19:03;9.80;99.90
27413;DHT22;14871;52.702;5.230;2023-12-14T13:21:30;10.00;99.90
27413;DHT22;14871;52.702;5.230;2023-12-14T13:23:55;9.90;99.90
27413;DHT22;14871;52.702;5.230;2023-12-14T13:26:23;10.00;99.90
27413;DHT22;14871;52.702;5.230;2023-12-14T13:28:50;10.10;99.90
27413;DHT22;14871;52.702;5.230;2023-12-14T13:31:16;10.10;99.90
27413;DHT22;14871;52.702;5.230;2023-12-14T13:33:42;10.10;99.90
27413;DHT22;14871;52.702;5.230;2023-12-14T13:36:08;9.90;99.90
27413;DHT22;14871;52.702;5.230;2023-12-14T13:38:34;9.90;99.90
27413;DHT22;14871;52.702;5.230;2023-12-14T13:41:02;10.00;99.90
27413;DHT22;14871;52.702;5.230;2023-12-14T13:43:28;9.90;99.90
27413;DHT22;14871;52.702;5.230;2023-12-14T13:45:54;9.80;99.90
27413;DHT22;14871;52.702;5.230;2023-12-14T13:48:24;9.90;99.90
27413;DHT22;14871;52.702;5.230;2023-12-14T13:50:50;9.90;99.90
27413;DHT22;14871;52.702;5.230;2023-12-14T13:53:15;9.80;99.90
27413;DHT22;14871;52.702;5.230;2023-12-14T13:55:41;9.70;99.90
27413;DHT22;14871;52.702;5.230;2023-12-14T13:58:07;9.90;99.90
27413;DHT22;14871;52.702;5.230;2023-12-14T14:00:32;9.80;99.90
27413;DHT22;14871;52.702;5.230;2023-12-14T14:03:02;9.70;99.90
27413;DHT22;14871;52.702;5.230;2023-12-14T14:05:29;9.50;99.90
27413;DHT22;14871;52.702;5.230;2023-12-14T14:07:55;9.70;99.90
27413;DHT22;14871;52.702;5.230;2023-12-14T14:10:21;9.70;99.90
27413;DHT22;14871;52.702;5.230;2023-12-14T14:12:46;9.70;99.90
27413;DHT22;14871;52.702;5.230;2023-12-14T14:15:12;9.60;99.90
27413;DHT22;14871;52.702;5.230;2023-12-14T14:17:38;9.50;99.90
27413;DHT22;14871;52.702;5.230;2023-12-14T14:20:04;9.60;99.90
27413;DHT22;14871;52.702;5.230;2023-12-14T14:22:30;9.70;99.90
27413;DHT22;14871;52.702;5.230;2023-12-14T14:24:56;9.60;99.90
27413;DHT22;14871;52.702;5.230;2023-12-14T14:27:22;9.40;99.90
27413;DHT22;14871;52.702;5.230;2023-12-14T14:29:49;9.40;99.90
27413;DHT22;14871;52.702;5.230;2023-12-14T14:32:15;9.40;99.90
27413;DHT22;14871;52.702;5.230;2023-12-14T14:34:42;9.40;99.90
27413;DHT22;14871;52.702;5.230;2023-12-14T14:37:08;9.10;99.90
27413;DHT22;14871;52.702;5.230;2023-12-14T14:39:33;9.20;99.90
27413;DHT22;14871;52.702;5.230;2023-12-14T14:41:59;9.10;99.90
27413;DHT22;14871;52.702;5.230;2023-12-14T14:44:25;9.30;99.90
27413;DHT22;14871;52.702;5.230;2023-12-14T14:46:51;9.10;99.90
27413;DHT22;14871;52.702;5.230;2023-12-14T14:49:17;9.30;99.90
27413;DHT22;14871;52.702;5.230;2023-12-14T14:51:43;9.20;99.90
27413;DHT22;14871;52.702;5.230;2023-12-14T14:54:09;9.30;99.90
27413;DHT22;14871;52.702;5.230;2023-12-14T14:56:35;9.20;99.90
27413;DHT22;14871;52.702;5.230;2023-12-14T14:59:00;9.20;99.90
27413;DHT22;14871;52.702;5.230;2023-12-14T15:01:26;9.20;99.90
27413;DHT22;14871;52.702;5.230;2023-12-14T15:03:51;9.30;99.90
27413;DHT22;14871;52.702;5.230;2023-12-14T15:06:17;9.20;99.90
27413;DHT22;14871;52.702;5.230;2023-12-14T15:08:43;9.20;99.90
27413;DHT22;14871;52.702;5.230;2023-12-14T15:11:08;9.30;99.90
27413;DHT22;14871;52.702;5.230;2023-12-14T15:13:36;9.30;99.90
27413;DHT22;14871;52.702;5.230;2023-12-14T15:16:02;9.20;99.90
27413;DHT22;14871;52.702;5.230;2023-12-14T15:18:28;9.20;99.90
27413;DHT22;14871;52.702;5.230;2023-12-14T15:20:53;9.10;99.90
27413;DHT22;14871;52.702;5.230;2023-12-14T15:23:19;9.20;99.90
27413;DHT22;14871;52.702;5.230;2023-12-14T15:25:45;9.10;99.90
27413;DHT22;14871;52.702;5.230;2023-12-14T15:28:10;9.10;99.90
27413;DHT22;14871;52.702;5.230;2023-12-14T15:30:36;9.20;99.90
27413;DHT22;14871;52.702;5.230;2023-12-14T15:33:02;9.20;99.90
27413;DHT22;14871;52.702;5.230;2023-12-14T15:35:28;9.30;99.90